createdAt,value
2023-03-16T00:02:24.563Z,1.20
2023-03-16T00:07:27.902Z,1.80
2023-03-16T00:12:34.868Z,2.30
2023-03-16T00:17:38.194Z,2.20
2023-03-16T00:22:41.990Z,1.83
2023-03-16T00:27:46.813Z,2.37
2023-03-16T00:32:50.139Z,1.40
2023-03-16T00:37:57.504Z,1.70
2023-03-16T00:43:02.232Z,1.80
2023-03-16T00:48:05.668Z,2.37
2023-03-16T00:53:08.967Z,1.60
2023-03-16T00:58:15.090Z,2.57
2023-03-16T01:03:18.388Z,2.20
2023-03-16T01:08:22.803Z,2.33
2023-03-16T01:13:27.545Z,3.07
2023-03-16T01:18:34.296Z,2.73
2023-03-16T01:23:37.706Z,2.53
2023-03-16T01:28:42.454Z,2.53
2023-03-16T01:33:46.069Z,2.47
2023-03-16T01:38:49.413Z,3.03
2023-03-16T01:43:58.482Z,2.70
2023-03-16T01:49:08.314Z,2.83
2023-03-16T01:54:23.185Z,3.87
2023-03-16T01:59:31.349Z,2.70
2023-03-16T02:04:43.618Z,2.80
2023-03-16T02:09:49.750Z,2.90
2023-03-16T02:14:54.430Z,3.37
2023-03-16T02:20:09.000Z,3.40
2023-03-16T02:25:14.143Z,3.43
2023-03-16T02:30:20.409Z,3.10
2023-03-16T02:35:24.173Z,3.13
2023-03-16T02:40:30.600Z,3.70
2023-03-16T02:45:41.149Z,3.33
2023-03-16T02:50:48.248Z,3.70
2023-03-16T02:55:52.153Z,4.20
2023-03-16T03:00:57.026Z,3.13
2023-03-16T03:06:00.324Z,3.90
2023-03-16T03:11:03.790Z,5.27
2023-03-16T03:16:08.917Z,4.20
2023-03-16T03:21:12.331Z,3.50
2023-03-16T03:26:16.020Z,3.13
2023-03-16T03:31:22.531Z,4.23
2023-03-16T03:36:25.893Z,3.07
2023-03-16T03:41:29.216Z,2.63
2023-03-16T03:46:33.970Z,2.43
2023-03-16T03:51:37.341Z,2.47
2023-03-16T03:56:40.661Z,2.90
2023-03-16T04:01:45.571Z,2.90
2023-03-16T04:06:48.964Z,3.53
2023-03-16T04:11:52.273Z,3.37
2023-03-16T04:16:57.203Z,3.77
2023-03-16T04:22:00.578Z,3.63
2023-03-16T04:27:04.114Z,3.50
2023-03-16T04:32:09.202Z,3.13
2023-03-16T04:37:13.235Z,2.80
2023-03-16T04:42:16.522Z,2.80
2023-03-16T04:47:23.264Z,2.60
2023-03-16T04:52:26.590Z,3.13
2023-03-16T04:57:30.599Z,2.20
2023-03-16T05:02:35.253Z,2.13
2023-03-16T05:07:38.581Z,2.27
2023-03-16T05:12:42.050Z,4.50
2023-03-16T05:17:46.786Z,3.13
2023-03-16T05:22:50.469Z,3.80
2023-03-16T05:27:55.235Z,2.33
2023-03-16T05:33:00.216Z,1.97
2023-03-16T05:38:03.856Z,2.73
2023-03-16T05:43:07.075Z,3.53
2023-03-16T05:48:11.820Z,2.40
2023-03-16T05:53:15.490Z,2.80
2023-03-16T05:58:18.730Z,2.87
2023-03-16T06:03:23.889Z,2.60
2023-03-16T06:08:27.741Z,3.20
2023-03-16T06:13:31.009Z,2.80
2023-03-16T06:18:35.900Z,3.17
2023-03-16T06:23:39.247Z,3.10
2023-03-16T06:28:42.756Z,5.67
2023-03-16T06:33:47.507Z,2.93
2023-03-16T06:38:51.766Z,4.17
2023-03-16T06:43:55.182Z,3.77
2023-03-16T06:49:01.092Z,5.53
2023-03-16T06:54:04.586Z,4.13
2023-03-16T06:59:08.304Z,6.00
2023-03-16T07:04:13.537Z,4.20
2023-03-16T07:09:17.036Z,4.23
2023-03-16T07:14:23.546Z,3.23
2023-03-16T07:19:28.312Z,3.30
2023-03-16T07:24:32.891Z,3.03
2023-03-16T07:29:36.274Z,3.17
2023-03-16T07:34:42.054Z,3.87
2023-03-16T07:39:46.091Z,2.57
2023-03-16T07:44:51.664Z,3.27
2023-03-16T07:49:56.642Z,3.43
2023-03-16T07:55:00.019Z,2.73
2023-03-16T08:00:05.363Z,2.67
2023-03-16T08:05:11.427Z,2.77
2023-03-16T08:10:14.772Z,2.60
2023-03-16T08:15:18.556Z,1.63
2023-03-16T08:20:23.320Z,1.80
2023-03-16T08:25:26.720Z,1.87
2023-03-16T08:30:31.181Z,2.80
2023-03-16T08:35:36.210Z,3.27
2023-03-16T08:40:42.253Z,1.20
2023-03-16T08:45:46.565Z,1.13
2023-03-16T08:50:51.918Z,3.60
2023-03-16T08:56:03.343Z,1.10
2023-03-16T09:01:09.220Z,1.37
2023-03-16T09:06:16.005Z,2.37
2023-03-16T09:11:21.557Z,1.03
2023-03-16T09:16:25.859Z,2.90
2023-03-16T09:21:31.292Z,0.97
2023-03-16T09:26:35.367Z,1.00
2023-03-16T09:31:41.701Z,2.07
2023-03-16T09:36:46.426Z,1.17
2023-03-16T09:41:54.081Z,1.10
2023-03-16T09:46:59.719Z,0.93
2023-03-16T09:52:13.937Z,0.83
2023-03-16T09:57:25.935Z,2.13
2023-03-16T10:02:45.761Z,0.77
2023-03-16T10:07:58.971Z,0.70
2023-03-16T10:13:04.002Z,1.40
2023-03-16T10:18:15.708Z,1.47
2023-03-16T10:23:23.011Z,0.33
2023-03-16T10:28:28.470Z,0.93
2023-03-16T10:33:33.680Z,1.23
2023-03-16T10:38:43.280Z,0.90
2023-03-16T10:43:47.590Z,1.63
2023-03-16T10:48:59.773Z,1.23
2023-03-16T10:54:12.025Z,0.90
2023-03-16T10:59:17.547Z,0.90
2023-03-16T11:04:21.508Z,2.30
2023-03-16T11:09:33.125Z,0.93
2023-03-16T11:14:37.596Z,0.60
2023-03-16T11:19:48.569Z,1.20
2023-03-16T11:24:57.866Z,0.80
2023-03-16T11:30:09.842Z,0.43
2023-03-16T11:35:19.605Z,1.40
2023-03-16T11:40:38.675Z,1.20
2023-03-16T11:45:48.633Z,1.47
2023-03-16T11:51:03.923Z,0.60
2023-03-16T11:56:17.908Z,0.83
2023-03-16T12:01:29.696Z,0.93
2023-03-16T12:06:47.169Z,1.00
2023-03-16T12:11:58.200Z,1.97
2023-03-16T12:17:05.882Z,1.10
2023-03-16T12:22:18.647Z,0.97
2023-03-16T12:27:26.247Z,0.90
2023-03-16T12:32:41.457Z,0.93
2023-03-16T12:37:54.592Z,1.00
2023-03-16T12:43:19.100Z,1.10
2023-03-16T12:48:29.159Z,1.20
2023-03-16T12:53:47.132Z,0.80
2023-03-16T12:58:52.547Z,0.83
2023-03-16T13:04:03.356Z,0.93
2023-03-16T13:09:09.801Z,1.47
2023-03-16T13:14:18.787Z,1.67
2023-03-16T13:19:30.618Z,1.50
2023-03-16T13:24:41.209Z,2.27
2023-03-16T13:29:58.078Z,1.10
2023-03-16T13:35:03.678Z,2.20
2023-03-16T13:40:20.852Z,1.20
2023-03-16T13:45:31.456Z,0.90
2023-03-16T13:50:36.436Z,0.80
2023-03-16T13:55:40.837Z,1.40
2023-03-16T14:00:47.506Z,1.10
2023-03-16T14:05:52.488Z,1.17
2023-03-16T14:11:01.094Z,1.03
2023-03-16T14:16:13.492Z,1.53
2023-03-16T14:21:20.939Z,1.17
2023-03-16T14:26:25.492Z,1.23
2023-03-16T14:31:41.233Z,1.33
2023-03-16T14:36:44.663Z,1.43
2023-03-16T14:41:53.017Z,2.50
2023-03-16T14:47:00.470Z,1.90
2023-03-16T14:52:09.939Z,1.83
2023-03-16T14:57:19.194Z,1.30
2023-03-16T15:02:28.368Z,2.40
2023-03-16T15:07:34.591Z,3.13
2023-03-16T15:12:38.745Z,2.23
2023-03-16T15:17:44.244Z,1.30
2023-03-16T15:22:52.227Z,1.10
2023-03-16T15:27:56.448Z,1.10
2023-03-16T15:33:01.429Z,1.07
2023-03-16T15:38:09.010Z,1.70
2023-03-16T15:43:13.591Z,1.00
2023-03-16T15:48:19.850Z,1.53
2023-03-16T15:53:31.378Z,1.10
2023-03-16T15:58:38.159Z,1.30
2023-03-16T16:03:43.077Z,3.53
2023-03-16T16:08:46.448Z,1.10
2023-03-16T16:13:50.553Z,1.67
2023-03-16T16:18:55.282Z,1.20
2023-03-16T16:23:58.546Z,2.37
2023-03-16T16:29:03.317Z,1.03
2023-03-16T16:34:13.848Z,1.63
2023-03-16T16:39:17.578Z,1.00
2023-03-16T16:44:24.454Z,1.87
2023-03-16T16:49:31.246Z,1.03
2023-03-16T16:54:35.501Z,1.50
2023-03-16T16:59:39.349Z,0.67
2023-03-16T17:04:44.030Z,1.00
2023-03-16T17:09:47.869Z,1.00
2023-03-16T17:14:53.123Z,1.03
2023-03-16T17:19:58.310Z,1.53
2023-03-16T17:25:02.362Z,0.47
2023-03-16T17:30:21.232Z,0.60
2023-03-16T17:35:26.052Z,1.60
2023-03-16T17:40:31.189Z,0.73
2023-03-16T17:45:35.745Z,1.00
2023-03-16T17:50:43.577Z,1.47
2023-03-16T17:55:49.560Z,1.10
2023-03-16T18:00:53.598Z,0.73
2023-03-16T18:05:59.773Z,1.30
2023-03-16T18:11:06.596Z,1.57
2023-03-16T18:16:16.243Z,1.10
2023-03-16T18:21:25.879Z,0.73
2023-03-16T18:26:30.470Z,1.43
2023-03-16T18:31:36.343Z,2.00
2023-03-16T18:36:43.631Z,2.23
2023-03-16T18:41:51.024Z,1.10
2023-03-16T18:47:01.010Z,0.70
2023-03-16T18:52:14.736Z,1.27
2023-03-16T18:57:20.784Z,1.37
2023-03-16T19:02:33.291Z,1.90
2023-03-16T19:07:48.091Z,1.83
2023-03-16T19:12:54.783Z,1.30
2023-03-16T19:18:00.911Z,1.20
2023-03-16T19:23:11.284Z,0.90
2023-03-16T19:28:18.897Z,3.37
2023-03-16T19:33:27.664Z,1.93
2023-03-16T19:38:34.762Z,2.97
2023-03-16T19:43:41.016Z,1.20
2023-03-16T19:48:45.982Z,1.30
2023-03-16T19:53:53.535Z,2.27
2023-03-16T19:59:03.539Z,1.60
2023-03-16T20:04:12.939Z,2.00
2023-03-16T20:09:19.370Z,2.97
2023-03-16T20:14:32.335Z,2.53
2023-03-16T20:19:36.601Z,1.70
2023-03-16T20:24:44.249Z,3.07
2023-03-16T20:29:49.894Z,1.30
2023-03-16T20:34:54.944Z,1.63
2023-03-16T20:40:02.954Z,1.07
2023-03-16T20:45:25.058Z,0.90
2023-03-16T20:50:32.192Z,2.27
2023-03-16T20:55:38.310Z,1.67
2023-03-16T21:00:42.404Z,1.60
2023-03-16T21:05:47.300Z,5.13
2023-03-16T21:10:56.546Z,1.60
2023-03-16T21:16:03.963Z,1.57
2023-03-16T21:21:09.459Z,2.03
2023-03-16T21:26:20.817Z,1.40
2023-03-16T21:31:25.168Z,1.93
2023-03-16T21:36:28.687Z,1.27
2023-03-16T21:41:33.611Z,3.70
2023-03-16T21:46:36.904Z,2.00
2023-03-16T21:51:40.485Z,1.50
2023-03-16T21:56:45.745Z,1.80
2023-03-16T22:02:01.323Z,2.77
2023-03-16T22:07:12.144Z,2.63
2023-03-16T22:12:17.241Z,2.47
2023-03-16T22:17:23.442Z,2.87
2023-03-16T22:22:27.187Z,2.93
2023-03-16T22:27:32.017Z,4.00
2023-03-16T22:32:35.692Z,3.70
2023-03-16T22:37:39.073Z,3.10
2023-03-16T22:42:43.883Z,2.90
2023-03-16T22:47:48.159Z,3.63
2023-03-16T22:52:53.921Z,4.33
2023-03-16T22:58:04.213Z,3.60
2023-03-16T23:03:17.202Z,4.70
2023-03-16T23:08:23.976Z,2.33
2023-03-16T23:13:29.118Z,3.10
2023-03-16T23:18:32.442Z,2.20
2023-03-16T23:23:35.750Z,2.80
2023-03-16T23:28:43.424Z,2.30
2023-03-16T23:33:51.630Z,3.30
2023-03-16T23:38:54.958Z,2.67
2023-03-16T23:43:59.796Z,2.60
2023-03-16T23:49:05.320Z,4.40
2023-03-16T23:54:17.098Z,4.30
2023-03-16T23:59:23.591Z,3.47
